sensor_id;sensor_type;location;lat;lon;timestamp;pressure;altitude;pressure_sealevel;temperature;humidity
55456;BME280;63021;52.836;6.376;2023-02-19T00:01:45;101620.00;;;9.25;84.06
55456;BME280;63021;52.836;6.376;2023-02-19T00:04:14;101632.44;;;9.25;84.02
55456;BME280;63021;52.836;6.376;2023-02-19T00:06:40;101628.06;;;9.24;84.18
55456;BME280;63021;52.836;6.376;2023-02-19T00:09:06;101615.41;;;9.16;84.25
55456;BME280;63021;52.836;6.376;2023-02-19T00:11:33;101635.97;;;9.25;83.84
55456;BME280;63021;52.836;6.376;2023-02-19T00:14:00;101630.84;;;9.22;84.00
55456;BME280;63021;52.836;6.376;2023-02-19T00:16:36;101624.47;;;9.25;84.01
55456;BME280;63021;52.836;6.376;2023-02-19T00:19:05;101633.28;;;9.14;83.59
55456;BME280;63021;52.836;6.376;2023-02-19T00:21:31;101645.00;;;9.23;83.70
55456;BME280;63021;52.836;6.376;2023-02-19T00:23:59;101628.44;;;9.19;83.69
55456;BME280;63021;52.836;6.376;2023-02-19T00:26:25;101632.69;;;9.22;83.89
55456;BME280;63021;52.836;6.376;2023-02-19T00:28:52;101616.47;;;9.13;84.21
55456;BME280;63021;52.836;6.376;2023-02-19T00:31:18;101638.81;;;9.22;84.24
55456;BME280;63021;52.836;6.376;2023-02-19T00:33:45;101633.63;;;9.21;84.14
55456;BME280;63021;52.836;6.376;2023-02-19T00:36:11;101623.25;;;9.17;84.29
55456;BME280;63021;52.836;6.376;2023-02-19T00:38:38;101635.56;;;9.18;84.25
55456;BME280;63021;52.836;6.376;2023-02-19T00:41:05;101617.22;;;9.15;84.23
55456;BME280;63021;52.836;6.376;2023-02-19T00:43:54;101630.13;;;9.20;84.42
55456;BME280;63021;52.836;6.376;2023-02-19T00:46:28;101656.00;;;9.18;84.10
55456;BME280;63021;52.836;6.376;2023-02-19T00:48:55;101628.81;;;9.14;84.31
55456;BME280;63021;52.836;6.376;2023-02-19T00:51:22;101635.69;;;9.17;83.53
55456;BME280;63021;52.836;6.376;2023-02-19T00:53:48;101641.97;;;9.16;84.25
55456;BME280;63021;52.836;6.376;2023-02-19T00:56:14;101639.44;;;9.14;84.31
55456;BME280;63021;52.836;6.376;2023-02-19T00:58:40;101631.81;;;9.10;83.75
55456;BME280;63021;52.836;6.376;2023-02-19T01:01:06;101633.41;;;9.12;83.77
55456;BME280;63021;52.836;6.376;2023-02-19T01:03:35;101625.44;;;9.12;83.94
55456;BME280;63021;52.836;6.376;2023-02-19T01:06:05;101605.00;;;9.01;84.24
55456;BME280;63021;52.836;6.376;2023-02-19T01:08:32;101619.50;;;9.09;83.97
55456;BME280;63021;52.836;6.376;2023-02-19T01:10:58;101637.72;;;9.13;83.80
55456;BME280;63021;52.836;6.376;2023-02-19T01:13:24;101647.63;;;9.11;83.84
55456;BME280;63021;52.836;6.376;2023-02-19T01:15:50;101630.94;;;9.09;83.58
55456;BME280;63021;52.836;6.376;2023-02-19T01:18:15;101630.94;;;9.09;84.29
55456;BME280;63021;52.836;6.376;2023-02-19T01:20:42;101623.72;;;9.11;83.51
55456;BME280;63021;52.836;6.376;2023-02-19T01:23:10;101632.78;;;9.09;83.39
55456;BME280;63021;52.836;6.376;2023-02-19T01:25:37;101636.38;;;9.08;84.02
55456;BME280;63021;52.836;6.376;2023-02-19T01:28:03;101630.22;;;8.96;83.12
55456;BME280;63021;52.836;6.376;2023-02-19T01:30:29;101629.25;;;8.97;83.67
55456;BME280;63021;52.836;6.376;2023-02-19T01:32:54;101637.09;;;8.98;83.79
55456;BME280;63021;52.836;6.376;2023-02-19T01:35:20;101646.78;;;8.99;83.81
55456;BME280;63021;52.836;6.376;2023-02-19T01:37:45;101641.59;;;8.98;83.74
55456;BME280;63021;52.836;6.376;2023-02-19T01:40:11;101635.53;;;8.96;83.55
55456;BME280;63021;52.836;6.376;2023-02-19T01:42:36;101638.19;;;8.96;83.28
55456;BME280;63021;52.836;6.376;2023-02-19T01:45:24;101645.06;;;8.98;83.42
55456;BME280;63021;52.836;6.376;2023-02-19T01:47:55;101639.59;;;8.89;83.78
55456;BME280;63021;52.836;6.376;2023-02-19T01:50:22;101646.38;;;8.93;83.42
55456;BME280;63021;52.836;6.376;2023-02-19T01:52:50;101644.69;;;8.92;83.22
55456;BME280;63021;52.836;6.376;2023-02-19T01:55:15;101653.13;;;8.86;83.22
55456;BME280;63021;52.836;6.376;2023-02-19T01:57:44;101634.78;;;8.82;83.21
55456;BME280;63021;52.836;6.376;2023-02-19T02:00:14;101650.31;;;8.76;83.30
55456;BME280;63021;52.836;6.376;2023-02-19T02:02:42;101643.69;;;8.81;83.44
55456;BME280;63021;52.836;6.376;2023-02-19T02:05:14;101642.09;;;8.79;83.05
55456;BME280;63021;52.836;6.376;2023-02-19T02:07:43;101645.75;;;8.78;83.33
55456;BME280;63021;52.836;6.376;2023-02-19T02:10:27;101637.03;;;8.76;83.27
55456;BME280;63021;52.836;6.376;2023-02-19T02:12:56;101651.06;;;8.78;83.87
55456;BME280;63021;52.836;6.376;2023-02-19T02:15:26;101631.59;;;8.77;83.50
55456;BME280;63021;52.836;6.376;2023-02-19T02:18:04;101641.38;;;8.77;83.43
55456;BME280;63021;52.836;6.376;2023-02-19T02:23:40;101641.50;;;8.75;83.36
55456;BME280;63021;52.836;6.376;2023-02-19T02:26:20;101643.28;;;8.75;83.69
55456;BME280;63021;52.836;6.376;2023-02-19T02:29:18;101649.59;;;8.74;83.66
55456;BME280;63021;52.836;6.376;2023-02-19T02:31:53;101645.47;;;8.70;83.61
55456;BME280;63021;52.836;6.376;2023-02-19T02:34:26;101651.59;;;8.70;83.68
55456;BME280;63021;52.836;6.376;2023-02-19T02:36:55;101649.91;;;8.69;83.71
55456;BME280;63021;52.836;6.376;2023-02-19T02:39:24;101658.63;;;8.71;83.46
55456;BME280;63021;52.836;6.376;2023-02-19T02:41:55;101658.84;;;8.68;83.60
55456;BME280;63021;52.836;6.376;2023-02-19T02:44:40;101689.84;;;8.67;83.46
55456;BME280;63021;52.836;6.376;2023-02-19T02:47:07;101675.72;;;8.67;83.68
55456;BME280;63021;52.836;6.376;2023-02-19T02:49:54;101676.56;;;8.67;83.66
55456;BME280;63021;52.836;6.376;2023-02-19T02:52:34;101685.41;;;8.68;83.33
55456;BME280;63021;52.836;6.376;2023-02-19T02:55:21;101703.22;;;8.66;84.03
55456;BME280;63021;52.836;6.376;2023-02-19T02:57:46;101667.13;;;8.52;83.76
55456;BME280;63021;52.836;6.376;2023-02-19T03:00:13;101687.31;;;8.66;83.79
55456;BME280;63021;52.836;6.376;2023-02-19T03:02:41;101692.63;;;8.66;83.75
55456;BME280;63021;52.836;6.376;2023-02-19T03:08:35;101701.75;;;8.62;84.48
55456;BME280;63021;52.836;6.376;2023-02-19T03:11:06;101715.16;;;8.60;83.57
55456;BME280;63021;52.836;6.376;2023-02-19T03:16:50;101720.69;;;8.57;83.95
55456;BME280;63021;52.836;6.376;2023-02-19T03:19:42;101714.53;;;8.57;84.00
55456;BME280;63021;52.836;6.376;2023-02-19T03:22:18;101719.84;;;8.57;84.44
55456;BME280;63021;52.836;6.376;2023-02-19T03:24:51;101732.16;;;8.58;84.53
55456;BME280;63021;52.836;6.376;2023-02-19T03:27:37;101712.72;;;8.57;84.25
55456;BME280;63021;52.836;6.376;2023-02-19T03:30:09;101713.28;;;8.49;84.48
55456;BME280;63021;52.836;6.376;2023-02-19T03:32:41;101719.97;;;8.55;83.94
55456;BME280;63021;52.836;6.376;2023-02-19T03:35:12;101734.72;;;8.59;84.69
55456;BME280;63021;52.836;6.376;2023-02-19T03:37:44;101747.09;;;8.59;84.55
55456;BME280;63021;52.836;6.376;2023-02-19T03:40:11;101717.19;;;8.57;84.63
55456;BME280;63021;52.836;6.376;2023-02-19T03:42:42;101722.28;;;8.60;84.44
55456;BME280;63021;52.836;6.376;2023-02-19T03:47:53;101741.06;;;8.57;84.56
55456;BME280;63021;52.836;6.376;2023-02-19T03:50:36;101757.00;;;8.57;84.66
55456;BME280;63021;52.836;6.376;2023-02-19T03:53:11;101745.56;;;8.56;84.48
55456;BME280;63021;52.836;6.376;2023-02-19T03:56:09;101748.28;;;8.55;84.61
55456;BME280;63021;52.836;6.376;2023-02-19T04:01:31;101762.31;;;8.57;84.32
55456;BME280;63021;52.836;6.376;2023-02-19T04:04:05;101762.00;;;8.48;84.41
55456;BME280;63021;52.836;6.376;2023-02-19T04:06:34;101757.22;;;8.54;84.42
55456;BME280;63021;52.836;6.376;2023-02-19T04:09:04;101758.41;;;8.49;84.82
55456;BME280;63021;52.836;6.376;2023-02-19T04:11:31;101775.81;;;8.54;84.47
55456;BME280;63021;52.836;6.376;2023-02-19T04:14:03;101783.78;;;8.54;84.62
55456;BME280;63021;52.836;6.376;2023-02-19T04:16:32;101760.00;;;8.52;84.37
55456;BME280;63021;52.836;6.376;2023-02-19T04:19:04;101785.66;;;8.52;84.37
55456;BME280;63021;52.836;6.376;2023-02-19T04:21:32;101797.16;;;8.52;84.73
55456;BME280;63021;52.836;6.376;2023-02-19T04:24:05;101795.56;;;8.49;84.54
55456;BME280;63021;52.836;6.376;2023-02-19T04:26:32;101807.75;;;8.52;84.87
55456;BME280;63021;52.836;6.376;2023-02-19T04:28:59;101815.09;;;8.48;84.48
55456;BME280;63021;52.836;6.376;2023-02-19T04:31:26;101810.72;;;8.47;84.71
55456;BME280;63021;52.836;6.376;2023-02-19T04:33:52;101822.19;;;8.35;84.48
55456;BME280;63021;52.836;6.376;2023-02-19T04:36:17;101807.44;;;8.44;84.86
55456;BME280;63021;52.836;6.376;2023-02-19T04:38:43;101834.72;;;8.46;84.79
55456;BME280;63021;52.836;6.376;2023-02-19T04:41:08;101834.72;;;8.46;84.50
55456;BME280;63021;52.836;6.376;2023-02-19T04:43:34;101834.06;;;8.42;84.89
55456;BME280;63021;52.836;6.376;2023-02-19T04:46:00;101843.56;;;8.46;84.79
55456;BME280;63021;52.836;6.376;2023-02-19T04:48:26;101850.53;;;8.47;84.52
55456;BME280;63021;52.836;6.376;2023-02-19T04:50:52;101831.09;;;8.34;84.71
55456;BME280;63021;52.836;6.376;2023-02-19T04:53:17;101851.06;;;8.40;84.76
55456;BME280;63021;52.836;6.376;2023-02-19T04:55:42;101864.09;;;8.43;84.51
55456;BME280;63021;52.836;6.376;2023-02-19T04:58:08;101860.81;;;8.39;84.48
55456;BME280;63021;52.836;6.376;2023-02-19T05:00:33;101884.59;;;8.41;84.40
55456;BME280;63021;52.836;6.376;2023-02-19T05:02:59;101877.59;;;8.40;84.48
55456;BME280;63021;52.836;6.376;2023-02-19T05:05:25;101882.47;;;8.33;83.98
55456;BME280;63021;52.836;6.376;2023-02-19T05:07:50;101878.88;;;8.21;84.01
55456;BME280;63021;52.836;6.376;2023-02-19T05:10:16;101911.56;;;8.22;83.81
55456;BME280;63021;52.836;6.376;2023-02-19T05:12:41;101886.91;;;8.07;84.13
55456;BME280;63021;52.836;6.376;2023-02-19T05:15:06;101902.63;;;8.10;83.55
55456;BME280;63021;52.836;6.376;2023-02-19T05:17:32;101904.88;;;8.03;83.49
55456;BME280;63021;52.836;6.376;2023-02-19T05:19:58;101916.72;;;7.97;83.20
55456;BME280;63021;52.836;6.376;2023-02-19T05:22:23;101919.66;;;7.93;83.76
55456;BME280;63021;52.836;6.376;2023-02-19T05:24:49;101931.47;;;7.89;83.84
55456;BME280;63021;52.836;6.376;2023-02-19T05:27:14;101913.38;;;7.81;83.92
55456;BME280;63021;52.836;6.376;2023-02-19T05:29:40;101937.34;;;7.79;83.56
55456;BME280;63021;52.836;6.376;2023-02-19T05:32:05;101921.22;;;7.70;82.95
55456;BME280;63021;52.836;6.376;2023-02-19T05:34:30;101933.69;;;7.55;83.50
55456;BME280;63021;52.836;6.376;2023-02-19T05:36:56;101948.44;;;7.59;83.43
55456;BME280;63021;52.836;6.376;2023-02-19T05:39:21;101950.63;;;7.52;83.33
55456;BME280;63021;52.836;6.376;2023-02-19T05:41:46;101960.38;;;7.52;83.14
55456;BME280;63021;52.836;6.376;2023-02-19T05:44:12;101961.53;;;7.48;83.25
55456;BME280;63021;52.836;6.376;2023-02-19T05:46:37;101961.16;;;7.39;83.23
55456;BME280;63021;52.836;6.376;2023-02-19T05:49:03;101975.34;;;7.38;83.22
55456;BME280;63021;52.836;6.376;2023-02-19T05:51:28;101981.91;;;7.33;82.86
55456;BME280;63021;52.836;6.376;2023-02-19T05:53:55;101994.38;;;7.31;83.16
55456;BME280;63021;52.836;6.376;2023-02-19T05:56:35;102003.47;;;7.26;82.87
55456;BME280;63021;52.836;6.376;2023-02-19T05:59:22;101998.56;;;7.20;82.51
55456;BME280;63021;52.836;6.376;2023-02-19T06:01:49;102005.75;;;7.18;82.93
55456;BME280;63021;52.836;6.376;2023-02-19T06:04:15;102003.28;;;7.15;82.66
55456;BME280;63021;52.836;6.376;2023-02-19T06:06:43;102003.78;;;7.07;82.91
55456;BME280;63021;52.836;6.376;2023-02-19T06:09:09;102015.91;;;7.11;82.59
55456;BME280;63021;52.836;6.376;2023-02-19T06:11:36;102017.66;;;7.11;83.29
55456;BME280;63021;52.836;6.376;2023-02-19T06:14:01;102004.19;;;7.01;82.90
55456;BME280;63021;52.836;6.376;2023-02-19T06:16:27;102032.25;;;7.04;82.93
55456;BME280;63021;52.836;6.376;2023-02-19T06:18:52;102017.97;;;7.06;83.09
55456;BME280;63021;52.836;6.376;2023-02-19T06:21:18;102010.91;;;6.92;83.27
55456;BME280;63021;52.836;6.376;2023-02-19T06:23:44;102010.03;;;6.92;82.70
55456;BME280;63021;52.836;6.376;2023-02-19T06:26:17;102033.56;;;6.97;82.94
55456;BME280;63021;52.836;6.376;2023-02-19T06:28:44;102026.59;;;6.96;82.45
55456;BME280;63021;52.836;6.376;2023-02-19T06:31:10;102030.38;;;6.91;82.97
55456;BME280;63021;52.836;6.376;2023-02-19T06:33:36;102044.63;;;6.89;82.63
55456;BME280;63021;52.836;6.376;2023-02-19T06:36:08;102054.63;;;6.84;82.86
55456;BME280;63021;52.836;6.376;2023-02-19T06:38:34;102074.13;;;6.83;82.72
55456;BME280;63021;52.836;6.376;2023-02-19T06:41:04;102083.19;;;6.79;82.36
55456;BME280;63021;52.836;6.376;2023-02-19T06:43:31;102082.50;;;6.75;82.18
55456;BME280;63021;52.836;6.376;2023-02-19T06:46:00;102088.84;;;6.72;82.88
55456;BME280;63021;52.836;6.376;2023-02-19T06:48:27;102091.50;;;6.72;82.46
55456;BME280;63021;52.836;6.376;2023-02-19T06:50:53;102104.88;;;6.69;82.61
55456;BME280;63021;52.836;6.376;2023-02-19T06:53:18;102130.69;;;6.66;82.18
55456;BME280;63021;52.836;6.376;2023-02-19T06:55:57;102111.50;;;6.62;82.88
55456;BME280;63021;52.836;6.376;2023-02-19T06:58:23;102136.69;;;6.53;82.42
55456;BME280;63021;52.836;6.376;2023-02-19T07:00:49;102141.66;;;6.59;82.50
55456;BME280;63021;52.836;6.376;2023-02-19T07:03:14;102154.19;;;6.56;82.22
55456;BME280;63021;52.836;6.376;2023-02-19T07:05:40;102146.44;;;6.53;82.11
55456;BME280;63021;52.836;6.376;2023-02-19T07:08:05;102168.53;;;6.52;82.01
55456;BME280;63021;52.836;6.376;2023-02-19T07:10:30;102160.25;;;6.42;82.57
55456;BME280;63021;52.836;6.376;2023-02-19T07:12:56;102176.81;;;6.46;82.40
55456;BME280;63021;52.836;6.376;2023-02-19T07:15:21;102174.28;;;6.44;82.28
55456;BME280;63021;52.836;6.376;2023-02-19T07:17:46;102180.56;;;6.41;82.32
55456;BME280;63021;52.836;6.376;2023-02-19T07:20:15;102196.53;;;6.40;82.56
55456;BME280;63021;52.836;6.376;2023-02-19T07:22:41;102189.81;;;6.34;82.48
55456;BME280;63021;52.836;6.376;2023-02-19T07:25:06;102166.44;;;6.27;82.10
55456;BME280;63021;52.836;6.376;2023-02-19T07:27:32;102182.97;;;6.30;81.97
55456;BME280;63021;52.836;6.376;2023-02-19T07:29:58;102171.22;;;6.20;82.08
55456;BME280;63021;52.836;6.376;2023-02-19T07:32:23;102169.41;;;6.20;82.47
55456;BME280;63021;52.836;6.376;2023-02-19T07:34:49;102185.19;;;6.22;82.59
55456;BME280;63021;52.836;6.376;2023-02-19T07:37:14;102172.50;;;6.13;82.09
55456;BME280;63021;52.836;6.376;2023-02-19T07:39:39;102175.88;;;6.15;82.16
55456;BME280;63021;52.836;6.376;2023-02-19T07:42:05;102175.31;;;6.10;82.18
55456;BME280;63021;52.836;6.376;2023-02-19T07:44:30;102191.19;;;6.10;82.05
55456;BME280;63021;52.836;6.376;2023-02-19T07:46:55;102187.84;;;6.06;82.06
55456;BME280;63021;52.836;6.376;2023-02-19T07:49:21;102180.94;;;6.03;82.33
55456;BME280;63021;52.836;6.376;2023-02-19T07:51:46;102203.09;;;6.01;82.08
55456;BME280;63021;52.836;6.376;2023-02-19T07:54:14;102204.78;;;6.02;81.96
55456;BME280;63021;52.836;6.376;2023-02-19T07:56:40;102200.69;;;5.96;82.30
55456;BME280;63021;52.836;6.376;2023-02-19T07:59:05;102223.03;;;5.90;82.08
55456;BME280;63021;52.836;6.376;2023-02-19T08:01:31;102214.13;;;5.92;82.10
55456;BME280;63021;52.836;6.376;2023-02-19T08:04:14;102223.88;;;5.91;81.65
55456;BME280;63021;52.836;6.376;2023-02-19T08:06:41;102228.31;;;5.90;81.73
55456;BME280;63021;52.836;6.376;2023-02-19T08:09:06;102213.53;;;5.86;81.77
55456;BME280;63021;52.836;6.376;2023-02-19T08:11:32;102213.75;;;5.82;81.83
55456;BME280;63021;52.836;6.376;2023-02-19T08:14:16;102230.69;;;5.95;82.20
55456;BME280;63021;52.836;6.376;2023-02-19T08:16:51;102232.56;;;5.93;82.12
55456;BME280;63021;52.836;6.376;2023-02-19T08:19:16;102236.81;;;5.96;81.96
55456;BME280;63021;52.836;6.376;2023-02-19T08:21:42;102256.16;;;5.98;81.45
55456;BME280;63021;52.836;6.376;2023-02-19T08:24:08;102263.81;;;6.02;81.96
55456;BME280;63021;52.836;6.376;2023-02-19T08:26:34;102271.59;;;6.05;81.62
55456;BME280;63021;52.836;6.376;2023-02-19T08:28:59;102277.53;;;6.09;82.00
55456;BME280;63021;52.836;6.376;2023-02-19T08:31:27;102302.22;;;6.10;82.04
55456;BME280;63021;52.836;6.376;2023-02-19T08:33:52;102288.56;;;6.17;81.82
55456;BME280;63021;52.836;6.376;2023-02-19T08:36:18;102291.31;;;6.16;81.78
55456;BME280;63021;52.836;6.376;2023-02-19T08:38:43;102301.72;;;6.19;81.90
55456;BME280;63021;52.836;6.376;2023-02-19T08:41:11;102309.25;;;6.27;82.11
55456;BME280;63021;52.836;6.376;2023-02-19T08:43:36;102300.88;;;6.18;81.84
55456;BME280;63021;52.836;6.376;2023-02-19T08:46:04;102317.09;;;6.28;81.30
55456;BME280;63021;52.836;6.376;2023-02-19T08:48:31;102333.63;;;6.32;81.28
55456;BME280;63021;52.836;6.376;2023-02-19T08:50:59;102319.31;;;6.36;81.34
55456;BME280;63021;52.836;6.376;2023-02-19T08:53:25;102320.25;;;6.35;81.53
55456;BME280;63021;52.836;6.376;2023-02-19T08:55:51;102317.38;;;6.39;81.62
55456;BME280;63021;52.836;6.376;2023-02-19T08:58:16;102313.94;;;6.37;81.33
55456;BME280;63021;52.836;6.376;2023-02-19T09:00:45;102318.84;;;6.45;81.29
55456;BME280;63021;52.836;6.376;2023-02-19T09:03:10;102331.28;;;6.43;81.39
55456;BME280;63021;52.836;6.376;2023-02-19T09:05:37;102330.88;;;6.51;81.19
55456;BME280;63021;52.836;6.376;2023-02-19T09:08:02;102342.38;;;6.50;80.70
55456;BME280;63021;52.836;6.376;2023-02-19T09:10:28;102325.13;;;6.43;80.62
55456;BME280;63021;52.836;6.376;2023-02-19T09:12:53;102336.72;;;6.40;80.16
55456;BME280;63021;52.836;6.376;2023-02-19T09:15:19;102341.94;;;6.41;80.07
55456;BME280;63021;52.836;6.376;2023-02-19T09:17:44;102361.00;;;6.48;80.17
55456;BME280;63021;52.836;6.376;2023-02-19T09:20:14;102370.56;;;6.51;79.89
55456;BME280;63021;52.836;6.376;2023-02-19T09:22:40;102382.91;;;6.50;80.03
55456;BME280;63021;52.836;6.376;2023-02-19T09:25:05;102414.59;;;6.68;79.52
55456;BME280;63021;52.836;6.376;2023-02-19T09:27:31;102413.75;;;6.67;79.44
55456;BME280;63021;52.836;6.376;2023-02-19T09:29:57;102400.53;;;6.83;79.10
55456;BME280;63021;52.836;6.376;2023-02-19T09:32:22;102391.25;;;6.92;78.66
55456;BME280;63021;52.836;6.376;2023-02-19T09:34:48;102422.16;;;7.07;79.05
55456;BME280;63021;52.836;6.376;2023-02-19T09:37:14;102396.22;;;7.14;78.59
55456;BME280;63021;52.836;6.376;2023-02-19T09:39:39;102410.28;;;7.31;78.51
55456;BME280;63021;52.836;6.376;2023-02-19T09:42:26;102426.50;;;7.40;78.12
55456;BME280;63021;52.836;6.376;2023-02-19T09:44:55;102413.84;;;7.45;77.71
55456;BME280;63021;52.836;6.376;2023-02-19T09:47:24;102428.44;;;7.53;77.07
55456;BME280;63021;52.836;6.376;2023-02-19T09:50:08;102437.34;;;7.52;76.83
55456;BME280;63021;52.836;6.376;2023-02-19T09:52:41;102438.81;;;7.57;76.71
55456;BME280;63021;52.836;6.376;2023-02-19T09:55:17;102433.75;;;7.53;76.85
55456;BME280;63021;52.836;6.376;2023-02-19T09:57:44;102438.03;;;7.55;76.18
55456;BME280;63021;52.836;6.376;2023-02-19T10:02:37;102434.63;;;7.53;76.72
55456;BME280;63021;52.836;6.376;2023-02-19T10:05:10;102437.94;;;7.57;76.80
55456;BME280;63021;52.836;6.376;2023-02-19T10:07:41;102425.13;;;7.49;76.18
55456;BME280;63021;52.836;6.376;2023-02-19T10:10:31;102432.53;;;7.58;75.77
55456;BME280;63021;52.836;6.376;2023-02-19T10:13:20;102436.81;;;7.61;76.20
55456;BME280;63021;52.836;6.376;2023-02-19T10:15:49;102437.69;;;7.61;75.92
55456;BME280;63021;52.836;6.376;2023-02-19T10:18:18;102424.69;;;7.57;75.87
55456;BME280;63021;52.836;6.376;2023-02-19T10:20:45;102449.56;;;7.70;76.20
55456;BME280;63021;52.836;6.376;2023-02-19T10:23:13;102438.44;;;7.63;76.07
55456;BME280;63021;52.836;6.376;2023-02-19T10:25:44;102441.00;;;7.65;75.34
55456;BME280;63021;52.836;6.376;2023-02-19T10:28:14;102456.41;;;7.74;75.52
55456;BME280;63021;52.836;6.376;2023-02-19T10:30:40;102469.97;;;7.68;75.28
55456;BME280;63021;52.836;6.376;2023-02-19T10:33:11;102483.22;;;7.68;75.00
55456;BME280;63021;52.836;6.376;2023-02-19T10:36:06;102455.22;;;7.48;75.28
55456;BME280;63021;52.836;6.376;2023-02-19T10:38:45;102486.06;;;7.65;74.97
55456;BME280;63021;52.836;6.376;2023-02-19T10:41:13;102482.75;;;7.61;75.34
55456;BME280;63021;52.836;6.376;2023-02-19T10:43:42;102487.19;;;7.61;74.82
55456;BME280;63021;52.836;6.376;2023-02-19T10:46:46;102480.50;;;7.54;74.83
55456;BME280;63021;52.836;6.376;2023-02-19T10:51:55;102511.03;;;7.61;74.73
55456;BME280;63021;52.836;6.376;2023-02-19T10:54:32;102493.34;;;7.61;74.42
55456;BME280;63021;52.836;6.376;2023-02-19T10:59:51;102481.78;;;7.62;74.30
55456;BME280;63021;52.836;6.376;2023-02-19T11:02:19;102489.22;;;7.72;74.91
55456;BME280;63021;52.836;6.376;2023-02-19T11:05:20;102478.19;;;7.79;73.90
55456;BME280;63021;52.836;6.376;2023-02-19T11:07:51;102482.28;;;7.85;74.65
55456;BME280;63021;52.836;6.376;2023-02-19T11:10:25;102496.97;;;7.91;74.71
55456;BME280;63021;52.836;6.376;2023-02-19T11:12:54;102490.38;;;7.98;74.36
55456;BME280;63021;52.836;6.376;2023-02-19T11:15:24;102503.69;;;8.12;74.48
55456;BME280;63021;52.836;6.376;2023-02-19T11:17:56;102509.56;;;8.18;73.60
55456;BME280;63021;52.836;6.376;2023-02-19T11:20:23;102500.50;;;8.22;73.05
55456;BME280;63021;52.836;6.376;2023-02-19T11:22:48;102505.13;;;8.18;72.83
55456;BME280;63021;52.836;6.376;2023-02-19T11:30:44;102509.81;;;8.13;71.77
55456;BME280;63021;52.836;6.376;2023-02-19T11:33:30;102486.22;;;8.08;71.78
55456;BME280;63021;52.836;6.376;2023-02-19T11:38:52;102494.22;;;8.23;71.46
55456;BME280;63021;52.836;6.376;2023-02-19T11:44:40;102498.41;;;8.27;71.61
55456;BME280;63021;52.836;6.376;2023-02-19T11:50:26;102496.53;;;8.29;71.43
55456;BME280;63021;52.836;6.376;2023-02-19T11:53:31;102499.94;;;8.31;71.80
55456;BME280;63021;52.836;6.376;2023-02-19T11:56:36;102505.91;;;8.35;71.47
55456;BME280;63021;52.836;6.376;2023-02-19T12:10:19;102484.31;;;8.41;71.85
55456;BME280;63021;52.836;6.376;2023-02-19T12:12:50;102486.72;;;8.45;71.88
55456;BME280;63021;52.836;6.376;2023-02-19T12:17:58;102505.50;;;8.57;72.02
55456;BME280;63021;52.836;6.376;2023-02-19T12:20:46;102506.06;;;8.62;71.72
55456;BME280;63021;52.836;6.376;2023-02-19T12:23:44;102514.72;;;8.65;71.43
55456;BME280;63021;52.836;6.376;2023-02-19T12:26:36;102512.34;;;8.61;71.30
55456;BME280;63021;52.836;6.376;2023-02-19T12:32:14;102512.06;;;8.65;71.16
55456;BME280;63021;52.836;6.376;2023-02-19T12:37:30;102529.63;;;8.82;71.17
55456;BME280;63021;52.836;6.376;2023-02-19T12:40:15;102521.47;;;8.86;70.79
55456;BME280;63021;52.836;6.376;2023-02-19T12:43:11;102524.88;;;8.88;70.73
55456;BME280;63021;52.836;6.376;2023-02-19T12:45:54;102529.03;;;8.92;70.51
55456;BME280;63021;52.836;6.376;2023-02-19T12:51:11;102524.59;;;8.78;69.55
55456;BME280;63021;52.836;6.376;2023-02-19T12:53:52;102540.34;;;8.81;69.60
55456;BME280;63021;52.836;6.376;2023-02-19T12:59:28;102560.16;;;8.75;68.89
55456;BME280;63021;52.836;6.376;2023-02-19T13:07:00;102546.47;;;8.67;68.69
55456;BME280;63021;52.836;6.376;2023-02-19T13:09:33;102549.13;;;8.67;68.71
55456;BME280;63021;52.836;6.376;2023-02-19T13:14:46;102572.53;;;8.60;68.44
55456;BME280;63021;52.836;6.376;2023-02-19T13:17:19;102564.41;;;8.63;68.87
55456;BME280;63021;52.836;6.376;2023-02-19T13:19:49;102580.50;;;8.60;68.92
55456;BME280;63021;52.836;6.376;2023-02-19T13:22:28;102593.69;;;8.62;69.05
55456;BME280;63021;52.836;6.376;2023-02-19T13:25:16;102591.13;;;8.60;68.85
55456;BME280;63021;52.836;6.376;2023-02-19T13:27:59;102586.69;;;8.61;68.91
55456;BME280;63021;52.836;6.376;2023-02-19T13:30:51;102579.47;;;8.63;69.15
55456;BME280;63021;52.836;6.376;2023-02-19T13:36:09;102575.19;;;8.60;68.49
55456;BME280;63021;52.836;6.376;2023-02-19T13:38:42;102571.09;;;8.55;68.67
55456;BME280;63021;52.836;6.376;2023-02-19T13:41:27;102570.25;;;8.54;68.80
55456;BME280;63021;52.836;6.376;2023-02-19T13:43:53;102577.09;;;8.58;69.28
55456;BME280;63021;52.836;6.376;2023-02-19T13:46:24;102569.16;;;8.42;69.00
55456;BME280;63021;52.836;6.376;2023-02-19T13:51:53;102543.06;;;8.35;68.82
55456;BME280;63021;52.836;6.376;2023-02-19T13:54:25;102561.03;;;8.45;68.69
55456;BME280;63021;52.836;6.376;2023-02-19T13:59:44;102587.59;;;8.45;68.78
55456;BME280;63021;52.836;6.376;2023-02-19T14:07:41;102550.56;;;8.42;68.14
55456;BME280;63021;52.836;6.376;2023-02-19T14:10:30;102554.94;;;8.43;68.59
55456;BME280;63021;52.836;6.376;2023-02-19T14:12:58;102562.75;;;8.46;68.50
55456;BME280;63021;52.836;6.376;2023-02-19T14:17:49;102545.78;;;8.49;68.47
55456;BME280;63021;52.836;6.376;2023-02-19T14:27:52;102500.09;;;8.58;68.58
55456;BME280;63021;52.836;6.376;2023-02-19T14:30:20;102503.59;;;8.59;68.70
55456;BME280;63021;52.836;6.376;2023-02-19T14:32:47;102524.75;;;8.60;68.57
55456;BME280;63021;52.836;6.376;2023-02-19T14:35:34;102513.00;;;8.64;68.57
55456;BME280;63021;52.836;6.376;2023-02-19T14:38:02;102505.50;;;8.57;67.99
55456;BME280;63021;52.836;6.376;2023-02-19T14:40:37;102499.44;;;8.55;68.08
55456;BME280;63021;52.836;6.376;2023-02-19T14:43:06;102509.59;;;8.62;67.78
55456;BME280;63021;52.836;6.376;2023-02-19T14:45:58;102510.44;;;8.63;68.03
55456;BME280;63021;52.836;6.376;2023-02-19T14:48:34;102491.94;;;8.61;68.04
55456;BME280;63021;52.836;6.376;2023-02-19T14:51:14;102504.19;;;8.64;67.39
55456;BME280;63021;52.836;6.376;2023-02-19T14:53:44;102506.25;;;8.59;67.90